sensor_id;sensor_type;location;lat;lon;timestamp;P1;durP1;ratioP1;P2;durP2;ratioP2
29120;SDS011;16191;49.548;8.658;2023-12-07T00:01:59;18.83;;;11.70;;
29120;SDS011;16191;49.548;8.658;2023-12-07T00:04:26;20.55;;;11.02;;
29120;SDS011;16191;49.548;8.658;2023-12-07T00:06:53;19.65;;;12.07;;
29120;SDS011;16191;49.548;8.658;2023-12-07T00:09:19;20.38;;;12.00;;
29120;SDS011;16191;49.548;8.658;2023-12-07T00:11:46;19.08;;;11.82;;
29120;SDS011;16191;49.548;8.658;2023-12-07T00:14:13;21.55;;;11.55;;
29120;SDS011;16191;49.548;8.658;2023-12-07T00:16:40;20.80;;;11.65;;
29120;SDS011;16191;49.548;8.658;2023-12-07T00:19:06;22.15;;;12.05;;
29120;SDS011;16191;49.548;8.658;2023-12-07T00:21:33;19.13;;;11.18;;
29120;SDS011;16191;49.548;8.658;2023-12-07T00:24:00;21.00;;;12.73;;
29120;SDS011;16191;49.548;8.658;2023-12-07T00:26:27;22.63;;;11.85;;
29120;SDS011;16191;49.548;8.658;2023-12-07T00:28:54;20.85;;;12.55;;
29120;SDS011;16191;49.548;8.658;2023-12-07T00:31:20;19.48;;;12.35;;
29120;SDS011;16191;49.548;8.658;2023-12-07T00:33:47;20.23;;;11.27;;
29120;SDS011;16191;49.548;8.658;2023-12-07T00:36:14;21.40;;;12.13;;
29120;SDS011;16191;49.548;8.658;2023-12-07T00:38:40;19.13;;;11.50;;
29120;SDS011;16191;49.548;8.658;2023-12-07T00:41:07;18.63;;;12.10;;
29120;SDS011;16191;49.548;8.658;2023-12-07T00:43:34;21.17;;;11.45;;
29120;SDS011;16191;49.548;8.658;2023-12-07T00:46:00;19.95;;;11.65;;
29120;SDS011;16191;49.548;8.658;2023-12-07T00:48:28;18.88;;;11.57;;
29120;SDS011;16191;49.548;8.658;2023-12-07T00:50:54;21.88;;;12.13;;
29120;SDS011;16191;49.548;8.658;2023-12-07T00:53:21;20.63;;;11.65;;
29120;SDS011;16191;49.548;8.658;2023-12-07T00:55:47;20.50;;;11.57;;
29120;SDS011;16191;49.548;8.658;2023-12-07T00:58:14;22.33;;;12.45;;
29120;SDS011;16191;49.548;8.658;2023-12-07T01:00:41;18.48;;;11.10;;
29120;SDS011;16191;49.548;8.658;2023-12-07T01:03:07;20.17;;;11.77;;
29120;SDS011;16191;49.548;8.658;2023-12-07T01:05:34;18.13;;;10.50;;
29120;SDS011;16191;49.548;8.658;2023-12-07T01:08:01;18.17;;;11.77;;
29120;SDS011;16191;49.548;8.658;2023-12-07T01:10:28;19.67;;;11.35;;
29120;SDS011;16191;49.548;8.658;2023-12-07T01:12:54;21.20;;;11.55;;
29120;SDS011;16191;49.548;8.658;2023-12-07T01:15:21;19.98;;;12.30;;
29120;SDS011;16191;49.548;8.658;2023-12-07T01:17:48;18.83;;;11.00;;
29120;SDS011;16191;49.548;8.658;2023-12-07T01:20:14;25.60;;;11.70;;
29120;SDS011;16191;49.548;8.658;2023-12-07T01:22:41;18.15;;;11.55;;
29120;SDS011;16191;49.548;8.658;2023-12-07T01:25:08;22.08;;;11.23;;
29120;SDS011;16191;49.548;8.658;2023-12-07T01:27:34;21.67;;;10.80;;
29120;SDS011;16191;49.548;8.658;2023-12-07T01:30:01;17.58;;;10.55;;
29120;SDS011;16191;49.548;8.658;2023-12-07T01:32:30;23.33;;;11.18;;
29120;SDS011;16191;49.548;8.658;2023-12-07T01:34:56;16.52;;;10.85;;
29120;SDS011;16191;49.548;8.658;2023-12-07T01:37:23;19.77;;;11.63;;
29120;SDS011;16191;49.548;8.658;2023-12-07T01:39:50;19.50;;;11.27;;
29120;SDS011;16191;49.548;8.658;2023-12-07T01:42:17;23.55;;;11.35;;
29120;SDS011;16191;49.548;8.658;2023-12-07T01:44:43;23.25;;;10.98;;
29120;SDS011;16191;49.548;8.658;2023-12-07T01:47:10;21.70;;;10.82;;
29120;SDS011;16191;49.548;8.658;2023-12-07T01:49:37;17.45;;;10.52;;
29120;SDS011;16191;49.548;8.658;2023-12-07T01:52:05;21.02;;;11.35;;
29120;SDS011;16191;49.548;8.658;2023-12-07T01:54:33;17.98;;;10.60;;
29120;SDS011;16191;49.548;8.658;2023-12-07T01:57:00;24.95;;;12.13;;
29120;SDS011;16191;49.548;8.658;2023-12-07T01:59:27;16.23;;;10.90;;
29120;SDS011;16191;49.548;8.658;2023-12-07T02:01:54;21.83;;;10.90;;
29120;SDS011;16191;49.548;8.658;2023-12-07T02:04:21;20.25;;;11.60;;
29120;SDS011;16191;49.548;8.658;2023-12-07T02:06:48;19.75;;;12.10;;
29120;SDS011;16191;49.548;8.658;2023-12-07T02:09:15;22.33;;;11.40;;
29120;SDS011;16191;49.548;8.658;2023-12-07T02:11:41;20.50;;;11.00;;
29120;SDS011;16191;49.548;8.658;2023-12-07T02:14:08;19.10;;;10.65;;
29120;SDS011;16191;49.548;8.658;2023-12-07T02:16:51;19.38;;;11.43;;
29120;SDS011;16191;49.548;8.658;2023-12-07T02:22:16;20.00;;;11.63;;
29120;SDS011;16191;49.548;8.658;2023-12-07T02:25:04;22.25;;;11.23;;
29120;SDS011;16191;49.548;8.658;2023-12-07T02:27:40;18.50;;;10.45;;
29120;SDS011;16191;49.548;8.658;2023-12-07T02:30:09;21.88;;;11.15;;
29120;SDS011;16191;49.548;8.658;2023-12-07T02:32:41;21.02;;;11.85;;
29120;SDS011;16191;49.548;8.658;2023-12-07T02:35:10;19.02;;;11.70;;
29120;SDS011;16191;49.548;8.658;2023-12-07T02:37:44;24.23;;;11.50;;
29120;SDS011;16191;49.548;8.658;2023-12-07T02:40:13;24.75;;;12.00;;
29120;SDS011;16191;49.548;8.658;2023-12-07T02:42:44;21.70;;;10.88;;
29120;SDS011;16191;49.548;8.658;2023-12-07T02:45:11;20.10;;;11.88;;
29120;SDS011;16191;49.548;8.658;2023-12-07T02:47:38;18.52;;;11.48;;
29120;SDS011;16191;49.548;8.658;2023-12-07T02:50:06;22.48;;;12.18;;
29120;SDS011;16191;49.548;8.658;2023-12-07T02:52:53;21.83;;;11.65;;
29120;SDS011;16191;49.548;8.658;2023-12-07T02:55:40;20.45;;;12.32;;
29120;SDS011;16191;49.548;8.658;2023-12-07T02:58:26;22.17;;;12.50;;
29120;SDS011;16191;49.548;8.658;2023-12-07T03:01:13;23.13;;;12.55;;
29120;SDS011;16191;49.548;8.658;2023-12-07T03:04:00;23.10;;;11.75;;
29120;SDS011;16191;49.548;8.658;2023-12-07T03:06:47;26.70;;;13.27;;
29120;SDS011;16191;49.548;8.658;2023-12-07T03:09:13;18.60;;;11.80;;
29120;SDS011;16191;49.548;8.658;2023-12-07T03:11:40;20.52;;;12.23;;
29120;SDS011;16191;49.548;8.658;2023-12-07T03:14:07;26.10;;;12.82;;
29120;SDS011;16191;49.548;8.658;2023-12-07T03:16:33;25.38;;;13.00;;
29120;SDS011;16191;49.548;8.658;2023-12-07T03:19:01;22.20;;;12.57;;
29120;SDS011;16191;49.548;8.658;2023-12-07T03:21:28;23.27;;;11.90;;
29120;SDS011;16191;49.548;8.658;2023-12-07T03:23:54;21.42;;;12.75;;
29120;SDS011;16191;49.548;8.658;2023-12-07T03:26:21;22.17;;;12.50;;
29120;SDS011;16191;49.548;8.658;2023-12-07T03:28:47;22.92;;;13.65;;
29120;SDS011;16191;49.548;8.658;2023-12-07T03:31:14;23.63;;;13.25;;
29120;SDS011;16191;49.548;8.658;2023-12-07T03:33:44;22.35;;;12.75;;
29120;SDS011;16191;49.548;8.658;2023-12-07T03:36:11;25.23;;;13.05;;
29120;SDS011;16191;49.548;8.658;2023-12-07T03:38:37;24.13;;;12.85;;
29120;SDS011;16191;49.548;8.658;2023-12-07T03:41:04;31.13;;;13.77;;
29120;SDS011;16191;49.548;8.658;2023-12-07T03:43:31;28.13;;;13.30;;
29120;SDS011;16191;49.548;8.658;2023-12-07T03:45:57;29.63;;;13.80;;
29120;SDS011;16191;49.548;8.658;2023-12-07T03:48:24;21.42;;;12.68;;
29120;SDS011;16191;49.548;8.658;2023-12-07T03:50:51;24.23;;;12.57;;
29120;SDS011;16191;49.548;8.658;2023-12-07T03:53:17;24.65;;;13.57;;
29120;SDS011;16191;49.548;8.658;2023-12-07T03:55:44;29.38;;;14.40;;
29120;SDS011;16191;49.548;8.658;2023-12-07T03:58:11;26.25;;;14.25;;
29120;SDS011;16191;49.548;8.658;2023-12-07T04:00:39;25.65;;;13.60;;
29120;SDS011;16191;49.548;8.658;2023-12-07T04:03:06;27.80;;;14.18;;
29120;SDS011;16191;49.548;8.658;2023-12-07T04:05:33;23.33;;;14.10;;
29120;SDS011;16191;49.548;8.658;2023-12-07T04:08:00;28.63;;;14.45;;
29120;SDS011;16191;49.548;8.658;2023-12-07T04:10:26;26.13;;;15.00;;
29120;SDS011;16191;49.548;8.658;2023-12-07T04:12:53;27.48;;;14.75;;
29120;SDS011;16191;49.548;8.658;2023-12-07T04:15:20;24.95;;;13.70;;
29120;SDS011;16191;49.548;8.658;2023-12-07T04:17:47;25.85;;;13.80;;
29120;SDS011;16191;49.548;8.658;2023-12-07T04:20:14;26.90;;;15.63;;
29120;SDS011;16191;49.548;8.658;2023-12-07T04:22:40;24.67;;;14.75;;
29120;SDS011;16191;49.548;8.658;2023-12-07T04:25:07;27.92;;;14.13;;
29120;SDS011;16191;49.548;8.658;2023-12-07T04:27:34;28.45;;;14.52;;
29120;SDS011;16191;49.548;8.658;2023-12-07T04:30:01;24.48;;;13.80;;
29120;SDS011;16191;49.548;8.658;2023-12-07T04:32:28;24.98;;;14.18;;
29120;SDS011;16191;49.548;8.658;2023-12-07T04:34:54;28.35;;;14.88;;
29120;SDS011;16191;49.548;8.658;2023-12-07T04:37:21;29.23;;;14.93;;
29120;SDS011;16191;49.548;8.658;2023-12-07T04:39:48;31.00;;;15.10;;
29120;SDS011;16191;49.548;8.658;2023-12-07T04:42:14;23.38;;;14.15;;
29120;SDS011;16191;49.548;8.658;2023-12-07T04:44:41;24.27;;;13.90;;
29120;SDS011;16191;49.548;8.658;2023-12-07T04:47:08;26.92;;;14.73;;
29120;SDS011;16191;49.548;8.658;2023-12-07T04:49:35;30.48;;;15.73;;
29120;SDS011;16191;49.548;8.658;2023-12-07T04:52:02;25.10;;;15.07;;
29120;SDS011;16191;49.548;8.658;2023-12-07T04:54:29;24.63;;;14.32;;
29120;SDS011;16191;49.548;8.658;2023-12-07T04:56:55;28.27;;;14.35;;
29120;SDS011;16191;49.548;8.658;2023-12-07T04:59:22;33.55;;;14.55;;
29120;SDS011;16191;49.548;8.658;2023-12-07T05:01:49;26.50;;;14.52;;
29120;SDS011;16191;49.548;8.658;2023-12-07T05:04:15;30.65;;;15.45;;
29120;SDS011;16191;49.548;8.658;2023-12-07T05:06:42;29.08;;;15.43;;
29120;SDS011;16191;49.548;8.658;2023-12-07T05:09:09;30.58;;;16.35;;
29120;SDS011;16191;49.548;8.658;2023-12-07T05:11:39;29.58;;;15.55;;
29120;SDS011;16191;49.548;8.658;2023-12-07T05:14:06;24.60;;;14.57;;
29120;SDS011;16191;49.548;8.658;2023-12-07T05:16:33;25.60;;;15.20;;
29120;SDS011;16191;49.548;8.658;2023-12-07T05:19:00;26.02;;;15.30;;
29120;SDS011;16191;49.548;8.658;2023-12-07T05:21:27;26.92;;;15.93;;
29120;SDS011;16191;49.548;8.658;2023-12-07T05:23:53;31.13;;;16.75;;
29120;SDS011;16191;49.548;8.658;2023-12-07T05:26:20;29.95;;;16.27;;
29120;SDS011;16191;49.548;8.658;2023-12-07T05:28:47;33.25;;;17.00;;
29120;SDS011;16191;49.548;8.658;2023-12-07T05:31:17;29.25;;;15.57;;
29120;SDS011;16191;49.548;8.658;2023-12-07T05:33:44;30.15;;;17.10;;
29120;SDS011;16191;49.548;8.658;2023-12-07T05:36:11;27.85;;;16.45;;
29120;SDS011;16191;49.548;8.658;2023-12-07T05:38:38;27.13;;;15.68;;
29120;SDS011;16191;49.548;8.658;2023-12-07T05:41:05;36.72;;;16.52;;
29120;SDS011;16191;49.548;8.658;2023-12-07T05:43:31;28.08;;;17.23;;
29120;SDS011;16191;49.548;8.658;2023-12-07T05:46:00;27.38;;;16.48;;
29120;SDS011;16191;49.548;8.658;2023-12-07T05:48:26;31.90;;;17.00;;
29120;SDS011;16191;49.548;8.658;2023-12-07T05:50:53;31.45;;;16.40;;
29120;SDS011;16191;49.548;8.658;2023-12-07T05:53:20;32.03;;;16.92;;
29120;SDS011;16191;49.548;8.658;2023-12-07T05:55:46;30.98;;;16.30;;
29120;SDS011;16191;49.548;8.658;2023-12-07T05:58:13;28.52;;;15.00;;
29120;SDS011;16191;49.548;8.658;2023-12-07T06:00:39;28.02;;;15.40;;
29120;SDS011;16191;49.548;8.658;2023-12-07T06:03:06;28.30;;;15.55;;
29120;SDS011;16191;49.548;8.658;2023-12-07T06:05:38;29.52;;;15.23;;
29120;SDS011;16191;49.548;8.658;2023-12-07T06:08:05;29.45;;;15.57;;
29120;SDS011;16191;49.548;8.658;2023-12-07T06:10:32;27.23;;;14.93;;
29120;SDS011;16191;49.548;8.658;2023-12-07T06:12:59;25.45;;;15.20;;
29120;SDS011;16191;49.548;8.658;2023-12-07T06:15:27;24.88;;;15.02;;
29120;SDS011;16191;49.548;8.658;2023-12-07T06:17:54;30.95;;;15.25;;
29120;SDS011;16191;49.548;8.658;2023-12-07T06:20:20;24.25;;;14.30;;
29120;SDS011;16191;49.548;8.658;2023-12-07T06:22:47;24.52;;;15.13;;
29120;SDS011;16191;49.548;8.658;2023-12-07T06:25:14;27.45;;;15.00;;
29120;SDS011;16191;49.548;8.658;2023-12-07T06:27:41;24.85;;;13.50;;
29120;SDS011;16191;49.548;8.658;2023-12-07T06:30:07;25.25;;;14.43;;
29120;SDS011;16191;49.548;8.658;2023-12-07T06:32:35;24.55;;;13.55;;
29120;SDS011;16191;49.548;8.658;2023-12-07T06:35:01;31.02;;;14.90;;
29120;SDS011;16191;49.548;8.658;2023-12-07T06:37:30;24.17;;;13.95;;
29120;SDS011;16191;49.548;8.658;2023-12-07T06:39:57;24.02;;;13.68;;
29120;SDS011;16191;49.548;8.658;2023-12-07T06:42:25;21.38;;;13.15;;
29120;SDS011;16191;49.548;8.658;2023-12-07T06:44:52;25.40;;;13.95;;
29120;SDS011;16191;49.548;8.658;2023-12-07T06:47:19;24.75;;;14.85;;
29120;SDS011;16191;49.548;8.658;2023-12-07T06:49:46;28.60;;;15.40;;
29120;SDS011;16191;49.548;8.658;2023-12-07T06:52:18;23.90;;;14.65;;
29120;SDS011;16191;49.548;8.658;2023-12-07T06:54:45;32.13;;;14.95;;
29120;SDS011;16191;49.548;8.658;2023-12-07T06:57:12;27.83;;;14.52;;
29120;SDS011;16191;49.548;8.658;2023-12-07T06:59:38;25.80;;;15.07;;
29120;SDS011;16191;49.548;8.658;2023-12-07T07:02:07;28.60;;;14.73;;
29120;SDS011;16191;49.548;8.658;2023-12-07T07:04:33;26.52;;;14.95;;
29120;SDS011;16191;49.548;8.658;2023-12-07T07:07:00;28.67;;;14.68;;
29120;SDS011;16191;49.548;8.658;2023-12-07T07:09:27;27.00;;;14.70;;
29120;SDS011;16191;49.548;8.658;2023-12-07T07:11:53;27.10;;;14.25;;
29120;SDS011;16191;49.548;8.658;2023-12-07T07:14:20;24.77;;;14.63;;
29120;SDS011;16191;49.548;8.658;2023-12-07T07:16:46;32.60;;;15.75;;
29120;SDS011;16191;49.548;8.658;2023-12-07T07:19:13;25.05;;;14.90;;
29120;SDS011;16191;49.548;8.658;2023-12-07T07:21:40;28.65;;;16.38;;
29120;SDS011;16191;49.548;8.658;2023-12-07T07:24:07;31.63;;;17.23;;
29120;SDS011;16191;49.548;8.658;2023-12-07T07:26:35;35.90;;;19.02;;
29120;SDS011;16191;49.548;8.658;2023-12-07T07:29:02;36.72;;;18.30;;
29120;SDS011;16191;49.548;8.658;2023-12-07T07:31:30;33.40;;;17.63;;
29120;SDS011;16191;49.548;8.658;2023-12-07T07:33:56;31.13;;;17.95;;
29120;SDS011;16191;49.548;8.658;2023-12-07T07:36:27;24.55;;;14.85;;
29120;SDS011;16191;49.548;8.658;2023-12-07T07:38:54;26.50;;;15.52;;
29120;SDS011;16191;49.548;8.658;2023-12-07T07:41:20;31.20;;;14.80;;
29120;SDS011;16191;49.548;8.658;2023-12-07T07:43:47;22.27;;;14.30;;
29120;SDS011;16191;49.548;8.658;2023-12-07T07:46:14;24.42;;;13.88;;
29120;SDS011;16191;49.548;8.658;2023-12-07T07:48:40;22.42;;;14.05;;
29120;SDS011;16191;49.548;8.658;2023-12-07T07:51:07;26.42;;;14.52;;
29120;SDS011;16191;49.548;8.658;2023-12-07T07:53:34;28.60;;;14.07;;
29120;SDS011;16191;49.548;8.658;2023-12-07T07:56:00;27.80;;;14.57;;
29120;SDS011;16191;49.548;8.658;2023-12-07T07:58:27;21.08;;;14.35;;
29120;SDS011;16191;49.548;8.658;2023-12-07T08:00:54;22.13;;;13.98;;
29120;SDS011;16191;49.548;8.658;2023-12-07T08:03:20;26.67;;;13.88;;
29120;SDS011;16191;49.548;8.658;2023-12-07T08:05:47;27.27;;;13.30;;
29120;SDS011;16191;49.548;8.658;2023-12-07T08:08:14;23.42;;;13.48;;
29120;SDS011;16191;49.548;8.658;2023-12-07T08:10:40;27.90;;;14.77;;
29120;SDS011;16191;49.548;8.658;2023-12-07T08:13:21;24.95;;;13.45;;
29120;SDS011;16191;49.548;8.658;2023-12-07T08:15:48;21.80;;;12.45;;
29120;SDS011;16191;49.548;8.658;2023-12-07T08:18:15;20.55;;;13.15;;
29120;SDS011;16191;49.548;8.658;2023-12-07T08:20:42;22.02;;;12.18;;
29120;SDS011;16191;49.548;8.658;2023-12-07T08:23:08;21.25;;;11.95;;
29120;SDS011;16191;49.548;8.658;2023-12-07T08:25:38;20.23;;;12.40;;
29120;SDS011;16191;49.548;8.658;2023-12-07T08:28:04;18.65;;;11.20;;
29120;SDS011;16191;49.548;8.658;2023-12-07T08:30:31;20.13;;;12.73;;
29120;SDS011;16191;49.548;8.658;2023-12-07T08:32:58;20.73;;;12.32;;
29120;SDS011;16191;49.548;8.658;2023-12-07T08:35:25;22.33;;;12.75;;
29120;SDS011;16191;49.548;8.658;2023-12-07T08:37:51;21.95;;;12.63;;
29120;SDS011;16191;49.548;8.658;2023-12-07T08:40:18;22.58;;;13.02;;
29120;SDS011;16191;49.548;8.658;2023-12-07T08:42:46;23.88;;;13.25;;
29120;SDS011;16191;49.548;8.658;2023-12-07T08:45:17;20.52;;;13.23;;
29120;SDS011;16191;49.548;8.658;2023-12-07T08:47:44;27.83;;;14.57;;
29120;SDS011;16191;49.548;8.658;2023-12-07T08:50:10;17.88;;;11.40;;
29120;SDS011;16191;49.548;8.658;2023-12-07T08:52:37;21.38;;;10.77;;
29120;SDS011;16191;49.548;8.658;2023-12-07T08:55:13;21.20;;;11.55;;
29120;SDS011;16191;49.548;8.658;2023-12-07T08:57:42;23.15;;;11.60;;
29120;SDS011;16191;49.548;8.658;2023-12-07T09:00:08;20.83;;;12.80;;
29120;SDS011;16191;49.548;8.658;2023-12-07T09:02:36;26.10;;;14.45;;
29120;SDS011;16191;49.548;8.658;2023-12-07T09:05:13;28.05;;;15.40;;
29120;SDS011;16191;49.548;8.658;2023-12-07T09:07:39;25.98;;;15.25;;
29120;SDS011;16191;49.548;8.658;2023-12-07T09:10:07;24.85;;;15.10;;
29120;SDS011;16191;49.548;8.658;2023-12-07T09:12:35;23.70;;;15.18;;
29120;SDS011;16191;49.548;8.658;2023-12-07T09:15:05;28.77;;;17.45;;
29120;SDS011;16191;49.548;8.658;2023-12-07T09:17:34;26.05;;;12.82;;
29120;SDS011;16191;49.548;8.658;2023-12-07T09:20:01;21.85;;;11.55;;
29120;SDS011;16191;49.548;8.658;2023-12-07T09:22:30;14.77;;;10.60;;
29120;SDS011;16191;49.548;8.658;2023-12-07T09:25:03;16.75;;;9.45;;
29120;SDS011;16191;49.548;8.658;2023-12-07T09:27:31;12.75;;;8.02;;
29120;SDS011;16191;49.548;8.658;2023-12-07T09:29:59;11.70;;;8.05;;
29120;SDS011;16191;49.548;8.658;2023-12-07T09:32:26;13.77;;;8.45;;
29120;SDS011;16191;49.548;8.658;2023-12-07T09:35:03;15.30;;;8.27;;
29120;SDS011;16191;49.548;8.658;2023-12-07T09:37:45;14.43;;;8.07;;
29120;SDS011;16191;49.548;8.658;2023-12-07T09:40:19;12.75;;;7.43;;
29120;SDS011;16191;49.548;8.658;2023-12-07T09:42:48;16.45;;;8.27;;
29120;SDS011;16191;49.548;8.658;2023-12-07T09:45:16;12.50;;;8.00;;
29120;SDS011;16191;49.548;8.658;2023-12-07T09:47:47;11.57;;;7.47;;
29120;SDS011;16191;49.548;8.658;2023-12-07T09:50:16;14.32;;;8.73;;
29120;SDS011;16191;49.548;8.658;2023-12-07T09:52:44;12.93;;;8.00;;
29120;SDS011;16191;49.548;8.658;2023-12-07T09:55:22;12.60;;;7.80;;
29120;SDS011;16191;49.548;8.658;2023-12-07T09:57:49;15.05;;;8.60;;
29120;SDS011;16191;49.548;8.658;2023-12-07T10:00:17;13.32;;;6.75;;
29120;SDS011;16191;49.548;8.658;2023-12-07T10:02:45;12.32;;;7.75;;
29120;SDS011;16191;49.548;8.658;2023-12-07T10:05:13;11.75;;;7.30;;
29120;SDS011;16191;49.548;8.658;2023-12-07T10:07:40;13.55;;;8.00;;
29120;SDS011;16191;49.548;8.658;2023-12-07T10:10:08;11.73;;;7.32;;
29120;SDS011;16191;49.548;8.658;2023-12-07T10:12:43;14.13;;;7.53;;
29120;SDS011;16191;49.548;8.658;2023-12-07T10:15:17;10.50;;;7.23;;
29120;SDS011;16191;49.548;8.658;2023-12-07T10:17:57;15.80;;;7.15;;
29120;SDS011;16191;49.548;8.658;2023-12-07T10:20:26;12.43;;;7.22;;
29120;SDS011;16191;49.548;8.658;2023-12-07T10:23:00;14.27;;;7.57;;
29120;SDS011;16191;49.548;8.658;2023-12-07T10:25:41;11.85;;;7.60;;
29120;SDS011;16191;49.548;8.658;2023-12-07T10:28:08;12.35;;;8.02;;
29120;SDS011;16191;49.548;8.658;2023-12-07T10:30:56;11.68;;;7.03;;
29120;SDS011;16191;49.548;8.658;2023-12-07T10:33:25;14.02;;;7.85;;
29120;SDS011;16191;49.548;8.658;2023-12-07T10:35:52;12.20;;;7.32;;
29120;SDS011;16191;49.548;8.658;2023-12-07T10:38:19;9.95;;;6.20;;
29120;SDS011;16191;49.548;8.658;2023-12-07T10:40:46;11.13;;;6.90;;
29120;SDS011;16191;49.548;8.658;2023-12-07T10:43:13;10.65;;;6.95;;
29120;SDS011;16191;49.548;8.658;2023-12-07T10:45:42;12.88;;;6.75;;
29120;SDS011;16191;49.548;8.658;2023-12-07T10:48:09;13.23;;;6.68;;
29120;SDS011;16191;49.548;8.658;2023-12-07T10:50:39;11.88;;;7.28;;
29120;SDS011;16191;49.548;8.658;2023-12-07T10:53:11;11.45;;;7.00;;
29120;SDS011;16191;49.548;8.658;2023-12-07T10:55:46;13.00;;;7.60;;
29120;SDS011;16191;49.548;8.658;2023-12-07T10:58:18;9.90;;;6.72;;
29120;SDS011;16191;49.548;8.658;2023-12-07T11:00:47;14.10;;;7.70;;
29120;SDS011;16191;49.548;8.658;2023-12-07T11:03:15;13.13;;;7.18;;
29120;SDS011;16191;49.548;8.658;2023-12-07T11:05:46;11.60;;;6.85;;
29120;SDS011;16191;49.548;8.658;2023-12-07T11:08:17;11.35;;;6.65;;
29120;SDS011;16191;49.548;8.658;2023-12-07T11:10:58;10.93;;;7.03;;
29120;SDS011;16191;49.548;8.658;2023-12-07T11:13:30;10.02;;;6.60;;
29120;SDS011;16191;49.548;8.658;2023-12-07T11:16:02;11.52;;;7.07;;
29120;SDS011;16191;49.548;8.658;2023-12-07T11:18:29;16.55;;;7.65;;
29120;SDS011;16191;49.548;8.658;2023-12-07T11:20:56;12.27;;;7.55;;
29120;SDS011;16191;49.548;8.658;2023-12-07T11:23:25;12.50;;;7.90;;
29120;SDS011;16191;49.548;8.658;2023-12-07T11:25:53;11.10;;;7.13;;
29120;SDS011;16191;49.548;8.658;2023-12-07T11:28:36;10.80;;;7.00;;
29120;SDS011;16191;49.548;8.658;2023-12-07T11:31:08;14.57;;;7.43;;
29120;SDS011;16191;49.548;8.658;2023-12-07T11:33:38;10.38;;;7.10;;
29120;SDS011;16191;49.548;8.658;2023-12-07T11:36:06;11.65;;;7.45;;
29120;SDS011;16191;49.548;8.658;2023-12-07T11:38:36;13.40;;;7.85;;
29120;SDS011;16191;49.548;8.658;2023-12-07T11:41:03;13.30;;;7.93;;
29120;SDS011;16191;49.548;8.658;2023-12-07T11:46:06;12.65;;;7.78;;
29120;SDS011;16191;49.548;8.658;2023-12-07T11:48:34;13.13;;;7.53;;
29120;SDS011;16191;49.548;8.658;2023-12-07T11:53:32;12.13;;;7.20;;
29120;SDS011;16191;49.548;8.658;2023-12-07T11:56:06;12.48;;;7.07;;
29120;SDS011;16191;49.548;8.658;2023-12-07T11:58:34;10.65;;;6.75;;
29120;SDS011;16191;49.548;8.658;2023-12-07T12:01:06;11.77;;;7.20;;
29120;SDS011;16191;49.548;8.658;2023-12-07T12:03:34;11.90;;;7.10;;
29120;SDS011;16191;49.548;8.658;2023-12-07T12:06:03;11.57;;;6.95;;
29120;SDS011;16191;49.548;8.658;2023-12-07T12:08:31;12.65;;;7.10;;
29120;SDS011;16191;49.548;8.658;2023-12-07T12:10:58;11.88;;;7.18;;
29120;SDS011;16191;49.548;8.658;2023-12-07T12:13:25;11.82;;;6.97;;
29120;SDS011;16191;49.548;8.658;2023-12-07T12:15:54;9.65;;;6.75;;
29120;SDS011;16191;49.548;8.658;2023-12-07T12:18:22;11.82;;;7.18;;
29120;SDS011;16191;49.548;8.658;2023-12-07T12:20:50;11.60;;;7.20;;
29120;SDS011;16191;49.548;8.658;2023-12-07T12:23:17;12.05;;;6.75;;
29120;SDS011;16191;49.548;8.658;2023-12-07T12:25:45;10.70;;;6.57;;
29120;SDS011;16191;49.548;8.658;2023-12-07T12:28:13;12.52;;;6.70;;
29120;SDS011;16191;49.548;8.658;2023-12-07T12:30:42;11.82;;;6.30;;
29120;SDS011;16191;49.548;8.658;2023-12-07T12:33:09;14.13;;;7.38;;
29120;SDS011;16191;49.548;8.658;2023-12-07T12:35:36;10.73;;;6.38;;
29120;SDS011;16191;49.548;8.658;2023-12-07T12:38:03;14.18;;;6.60;;
29120;SDS011;16191;49.548;8.658;2023-12-07T12:40:35;11.98;;;6.82;;
29120;SDS011;16191;49.548;8.658;2023-12-07T12:43:02;12.68;;;6.60;;
29120;SDS011;16191;49.548;8.658;2023-12-07T12:45:29;9.10;;;6.53;;
29120;SDS011;16191;49.548;8.658;2023-12-07T12:47:56;9.70;;;6.40;;
29120;SDS011;16191;49.548;8.658;2023-12-07T12:50:33;11.38;;;6.50;;
29120;SDS011;16191;49.548;8.658;2023-12-07T12:53:04;10.88;;;6.68;;
29120;SDS011;16191;49.548;8.658;2023-12-07T12:55:32;11.82;;;6.70;;
29120;SDS011;16191;49.548;8.658;2023-12-07T12:58:00;10.23;;;6.60;;
29120;SDS011;16191;49.548;8.658;2023-12-07T13:00:27;14.98;;;6.60;;
29120;SDS011;16191;49.548;8.658;2023-12-07T13:02:54;9.85;;;6.60;;
29120;SDS011;16191;49.548;8.658;2023-12-07T13:05:21;9.63;;;6.20;;
29120;SDS011;16191;49.548;8.658;2023-12-07T13:07:49;11.05;;;7.00;;
29120;SDS011;16191;49.548;8.658;2023-12-07T13:10:33;12.73;;;7.93;;
29120;SDS011;16191;49.548;8.658;2023-12-07T13:13:00;12.95;;;7.45;;
29120;SDS011;16191;49.548;8.658;2023-12-07T13:15:28;10.80;;;7.38;;
29120;SDS011;16191;49.548;8.658;2023-12-07T13:17:55;14.05;;;7.20;;
29120;SDS011;16191;49.548;8.658;2023-12-07T13:20:22;11.55;;;6.80;;
29120;SDS011;16191;49.548;8.658;2023-12-07T13:22:49;12.25;;;7.03;;
29120;SDS011;16191;49.548;8.658;2023-12-07T13:25:16;12.82;;;7.35;;
29120;SDS011;16191;49.548;8.658;2023-12-07T13:27:43;12.60;;;7.47;;
29120;SDS011;16191;49.548;8.658;2023-12-07T13:30:09;13.55;;;7.32;;
29120;SDS011;16191;49.548;8.658;2023-12-07T13:32:36;12.30;;;7.78;;
29120;SDS011;16191;49.548;8.658;2023-12-07T13:35:04;18.20;;;8.50;;
29120;SDS011;16191;49.548;8.658;2023-12-07T13:37:31;14.65;;;8.05;;
29120;SDS011;16191;49.548;8.658;2023-12-07T13:39:59;11.75;;;7.63;;
29120;SDS011;16191;49.548;8.658;2023-12-07T13:42:26;12.60;;;7.55;;
29120;SDS011;16191;49.548;8.658;2023-12-07T13:44:54;14.13;;;8.15;;
29120;SDS011;16191;49.548;8.658;2023-12-07T13:47:24;12.82;;;8.90;;
29120;SDS011;16191;49.548;8.658;2023-12-07T13:49:58;13.20;;;8.52;;
29120;SDS011;16191;49.548;8.658;2023-12-07T13:52:25;16.13;;;9.13;;
29120;SDS011;16191;49.548;8.658;2023-12-07T13:54:52;18.08;;;10.82;;
29120;SDS011;16191;49.548;8.658;2023-12-07T13:57:20;18.15;;;11.10;;
29120;SDS011;16191;49.548;8.658;2023-12-07T13:59:47;21.58;;;13.27;;
29120;SDS011;16191;49.548;8.658;2023-12-07T14:02:14;30.88;;;18.15;;
29120;SDS011;16191;49.548;8.658;2023-12-07T14:04:41;33.20;;;19.05;;
29120;SDS011;16191;49.548;8.658;2023-12-07T14:09:40;25.88;;;14.18;;
29120;SDS011;16191;49.548;8.658;2023-12-07T14:12:22;27.95;;;16.10;;
29120;SDS011;16191;49.548;8.658;2023-12-07T14:14:49;36.70;;;20.20;;
29120;SDS011;16191;49.548;8.658;2023-12-07T14:17:16;38.13;;;19.98;;
29120;SDS011;16191;49.548;8.658;2023-12-07T14:19:45;30.67;;;18.25;;
29120;SDS011;16191;49.548;8.658;2023-12-07T14:22:14;26.33;;;13.80;;
29120;SDS011;16191;49.548;8.658;2023-12-07T14:24:41;21.48;;;12.32;;
29120;SDS011;16191;49.548;8.658;2023-12-07T14:27:08;19.20;;;11.02;;
29120;SDS011;16191;49.548;8.658;2023-12-07T14:29:35;30.38;;;16.48;;
29120;SDS011;16191;49.548;8.658;2023-12-07T14:32:02;43.78;;;21.60;;
29120;SDS011;16191;49.548;8.658;2023-12-07T14:34:30;38.88;;;22.15;;
29120;SDS011;16191;49.548;8.658;2023-12-07T14:37:02;35.65;;;20.13;;
29120;SDS011;16191;49.548;8.658;2023-12-07T14:39:31;39.50;;;21.10;;
29120;SDS011;16191;49.548;8.658;2023-12-07T14:41:58;37.20;;;19.75;;
29120;SDS011;16191;49.548;8.658;2023-12-07T14:44:24;40.15;;;21.23;;